Time;durP1;ratioP1;P1;durP2;ratioP2;P2;SDS_P1;SDS_P2;PMS_P1;PMS_P2;Temp;Humidity;BMP_temperature;BMP_pressure;BME280_temperature;BME280_humidity;BME280_pressure;Samples;Min_cycle;Max_cycle;Signal;HPM_P1;HPM_P2
2022/04/23 00:02:15;;;;;;;22.27;18.40;;;;;;;7.25;97.88;101416.69;4992613;28;20461;-44
2022/04/23 00:04:43;;;;;;;21.00;18.20;;;;;;;7.23;97.82;101416.00;4993190;28;20517;-45
2022/04/23 00:07:11;;;;;;;21.00;18.63;;;;;;;7.22;97.63;101414.38;4993007;28;20485;-51
2022/04/23 00:09:39;;;;;;;25.37;19.40;;;;;;;7.21;98.16;101408.22;4993188;28;20434;-46
2022/04/23 00:12:08;;;;;;;20.53;18.53;;;;;;;7.22;98.26;101406.41;4992227;28;20479;-46
2022/04/23 00:14:35;;;;;;;21.37;19.30;;;;;;;7.20;98.04;101406.56;4992694;28;20426;-45
2022/04/23 00:17:05;;;;;;;25.77;20.50;;;;;;;7.20;98.00;101405.72;4992858;28;21090;-43
2022/04/23 00:19:33;;;;;;;24.30;19.90;;;;;;;7.19;97.72;101393.47;4992558;28;20438;-44
2022/04/23 00:22:01;;;;;;;22.10;18.67;;;;;;;7.18;97.76;101405.88;4992154;28;20465;-45
2022/04/23 00:24:29;;;;;;;22.47;20.07;;;;;;;7.18;98.50;101407.72;4992742;28;20442;-45
2022/04/23 00:26:56;;;;;;;20.50;18.43;;;;;;;7.18;98.07;101399.75;4992499;28;20454;-45
2022/04/23 00:29:24;;;;;;;22.83;18.93;;;;;;;7.17;98.57;101398.06;4992823;28;20529;-47
2022/04/23 00:31:52;;;;;;;22.57;20.13;;;;;;;7.17;98.51;101396.25;4992025;28;20470;-47
2022/04/23 00:34:21;;;;;;;22.07;19.50;;;;;;;7.16;98.67;101399.91;4992894;28;20485;-43
2022/04/23 00:36:48;;;;;;;20.77;18.57;;;;;;;7.13;98.54;101396.75;4992603;28;20819;-47
2022/04/23 00:39:16;;;;;;;23.20;20.70;;;;;;;7.12;98.15;101403.88;4992753;28;20430;-49
2022/04/23 00:41:47;;;;;;;22.40;20.10;;;;;;;7.11;98.14;101404.84;4991670;28;21350;-44
2022/04/23 00:44:15;;;;;;;25.07;20.30;;;;;;;7.08;98.02;101410.47;4992766;28;20425;-47
2022/04/23 00:46:44;;;;;;;24.67;22.20;;;;;;;7.07;97.77;101408.81;4985616;28;20472;-44
2022/04/23 00:49:12;;;;;;;25.77;20.27;;;;;;;7.05;98.14;101416.09;4977445;28;20440;-43
2022/04/23 00:51:43;;;;;;;21.23;19.03;;;;;;;7.02;98.52;101405.78;4991818;28;20465;-46
2022/04/23 00:54:11;;;;;;;24.13;21.53;;;;;;;7.01;98.57;101409.44;4992700;28;20458;-46
2022/04/23 00:56:40;;;;;;;20.97;18.77;;;;;;;7.02;98.24;101419.06;4992480;28;20454;-48
2022/04/23 00:59:09;;;;;;;22.60;20.20;;;;;;;7.03;98.80;101412.78;4992584;28;20433;-44
2022/04/23 01:01:40;;;;;;;25.77;21.70;;;;;;;7.05;97.78;101402.00;4991858;28;20469;-48
2022/04/23 01:04:08;;;;;;;22.60;20.30;;;;;;;7.05;98.57;101410.78;4992437;28;20426;-46
2022/04/23 01:06:36;;;;;;;22.97;20.20;;;;;;;7.03;98.43;101401.31;4992142;28;20461;-46
2022/04/23 01:09:07;;;;;;;24.77;20.00;;;;;;;6.99;98.56;101406.09;4992555;28;20430;-47
2022/04/23 01:11:36;;;;;;;23.37;20.83;;;;;;;6.97;98.45;101407.25;4991608;28;20478;-51
2022/04/23 01:14:05;;;;;;;24.40;20.67;;;;;;;6.94;97.93;101410.22;4992270;28;20481;-48
2022/04/23 01:16:33;;;;;;;24.70;22.10;;;;;;;6.92;98.88;101418.34;4992229;28;20906;-49
2022/04/23 01:19:01;;;;;;;28.93;20.70;;;;;;;6.92;98.26;101417.50;4992081;28;20434;-48
2022/04/23 01:21:31;;;;;;;24.47;20.80;;;;;;;6.88;98.29;101398.44;4991779;28;20465;-50
2022/04/23 01:23:58;;;;;;;26.80;21.27;;;;;;;6.89;98.18;101413.34;4992442;28;20536;-44
2022/04/23 01:26:28;;;;;;;24.87;19.93;;;;;;;6.91;98.23;101400.75;4992180;28;20460;-48
2022/04/23 01:28:57;;;;;;;30.40;22.07;;;;;;;6.88;98.29;101406.38;4992482;28;20414;-45
2022/04/23 01:31:25;;;;;;;24.93;21.47;;;;;;;6.89;97.89;101405.41;4991773;28;20458;-44
2022/04/23 01:33:53;;;;;;;30.10;22.30;;;;;;;6.87;98.52;101409.19;4995933;28;20902;-50
2022/04/23 01:36:21;;;;;;;26.57;22.17;;;;;;;6.88;98.66;101405.53;4995928;28;20815;-44
2022/04/23 01:38:50;;;;;;;27.57;23.13;;;;;;;6.89;98.26;101401.91;4995748;28;20808;-44
2022/04/23 01:41:18;;;;;;;23.83;21.30;;;;;;;6.86;98.81;101403.06;4994922;28;20457;-45
2022/04/23 01:43:46;;;;;;;24.60;21.80;;;;;;;6.89;98.65;101405.41;4995625;28;20434;-46
2022/04/23 01:46:13;;;;;;;25.60;22.23;;;;;;;6.88;98.69;101405.53;4988375;28;20461;-45
2022/04/23 01:48:42;;;;;;;25.97;22.13;;;;;;;6.87;98.55;101398.59;4987595;28;20458;-45
2022/04/23 01:51:10;;;;;;;25.20;22.37;;;;;;;6.83;98.47;101403.38;4995123;28;20426;-45
2022/04/23 01:53:38;;;;;;;28.33;22.37;;;;;;;6.81;98.44;101407.19;4995482;28;20485;-46
2022/04/23 01:56:07;;;;;;;27.00;22.13;;;;;;;6.77;98.39;101406.66;4995344;28;20450;-47
2022/04/23 01:58:34;;;;;;;23.90;21.47;;;;;;;6.77;98.34;101409.31;4995273;28;20441;-46
2022/04/23 02:01:02;;;;;;;24.73;22.23;;;;;;;6.78;97.84;101410.13;4994829;28;20897;-48
2022/04/23 02:03:32;;;;;;;25.40;22.30;;;;;;;6.79;98.91;101403.81;4995389;28;20477;-46
2022/04/23 02:06:00;;;;;;;24.97;22.10;;;;;;;6.78;98.19;101410.94;4995207;28;20458;-48
2022/04/23 02:08:28;;;;;;;24.57;22.07;;;;;;;6.79;98.11;101407.31;4995277;28;20801;-46
2022/04/23 02:10:56;;;;;;;24.13;21.63;;;;;;;6.77;98.77;101408.47;4994433;28;20440;-45
2022/04/23 02:13:26;;;;;;;24.00;20.20;;;;;;;6.77;98.92;101404.00;4995418;28;20504;-44
2022/04/23 02:15:55;;;;;;;24.40;22.00;;;;;;;6.76;97.97;101396.19;4995108;28;20466;-44
2022/04/23 02:18:22;;;;;;;23.43;21.03;;;;;;;6.75;97.55;101416.56;4995292;28;20920;-44
2022/04/23 02:20:50;;;;;;;27.33;21.70;;;;;;;6.72;97.77;101408.91;4995130;28;20430;-44
2022/04/23 02:23:18;;;;;;;25.93;21.53;;;;;;;6.74;97.93;101404.31;4994711;28;20809;-47
2022/04/23 02:25:46;;;;;;;24.10;20.53;;;;;;;6.71;98.62;101398.47;4994682;28;20456;-48
2022/04/23 02:28:14;;;;;;;27.67;21.33;;;;;;;6.71;98.48;101411.72;4995145;28;20434;-44
2022/04/23 02:30:43;;;;;;;27.90;20.27;;;;;;;6.69;98.31;101411.88;4994712;28;20820;-47
2022/04/23 02:33:11;;;;;;;25.30;22.30;;;;;;;6.69;97.79;101410.06;4994344;28;20829;-43
2022/04/23 02:35:39;;;;;;;22.43;20.20;;;;;;;6.71;97.90;101409.09;4994728;28;20444;-46
2022/04/23 02:38:07;;;;;;;27.77;23.00;;;;;;;6.67;98.19;101401.44;4994505;28;20442;-47
2022/04/23 02:40:35;;;;;;;25.07;22.47;;;;;;;6.69;98.23;101401.28;4994420;28;20939;-47
2022/04/23 02:43:03;;;;;;;24.30;21.40;;;;;;;6.65;98.06;101398.13;4993624;28;20867;-46
2022/04/23 02:45:32;;;;;;;25.20;22.57;;;;;;;6.65;98.09;101405.25;4989390;28;20964;-49
2022/04/23 02:48:01;;;;;;;33.30;21.00;;;;;;;6.66;98.45;101398.94;4985162;28;20431;-49
2022/04/23 02:50:31;;;;;;;26.43;23.40;;;;;;;6.62;98.63;101406.38;4994141;28;21253;-43
2022/04/23 02:53:00;;;;;;;30.73;21.43;;;;;;;6.59;98.47;101405.84;4994085;28;21093;-44
2022/04/23 02:55:30;;;;;;;24.10;21.50;;;;;;;6.55;98.20;101405.31;4994562;28;20436;-48
2022/04/23 02:58:01;;;;;;;24.20;21.60;;;;;;;6.55;98.36;101401.84;4994422;28;20842;-48
2022/04/23 03:00:29;;;;;;;25.57;21.37;;;;;;;6.55;97.76;101405.31;4994177;28;20430;-44
2022/04/23 03:02:56;;;;;;;25.97;23.00;;;;;;;6.56;98.27;101403.50;4993741;28;20457;-45
2022/04/23 03:05:26;;;;;;;27.70;21.70;;;;;;;6.53;98.46;101395.88;4994090;28;20444;-46
2022/04/23 03:07:54;;;;;;;24.70;21.20;;;;;;;6.55;98.37;101402.69;4994332;28;20433;-47
2022/04/23 03:10:21;;;;;;;26.07;22.10;;;;;;;6.53;98.77;101406.47;4993981;28;20436;-45
2022/04/23 03:12:49;;;;;;;26.70;22.77;;;;;;;6.55;98.23;101399.19;4993619;28;20462;-44
2022/04/23 03:15:17;;;;;;;26.00;22.30;;;;;;;6.52;98.64;101395.03;4992513;28;20473;-44
2022/04/23 03:17:46;;;;;;;23.97;21.10;;;;;;;6.51;97.67;101392.56;4982326;28;20832;-46
2022/04/23 03:20:15;;;;;;;27.93;23.53;;;;;;;6.50;98.39;101402.31;4993879;28;20932;-44
2022/04/23 03:22:45;;;;;;;26.70;22.43;;;;;;;6.48;97.58;101400.81;4993423;28;20464;-48
2022/04/23 03:28:01;;;;;;;28.33;19.67;;;;;;;6.47;97.89;101389.38;4926457;29;20500;-46
2022/04/23 03:30:29;;;;;;;23.60;21.10;;;;;;;6.48;98.43;101388.38;4936112;29;20436;-45
2022/04/23 03:32:58;;;;;;;23.40;20.90;;;;;;;6.46;98.12;101395.66;4935864;28;20552;-46
2022/04/23 03:35:26;;;;;;;27.40;21.80;;;;;;;6.46;98.83;101387.69;4937303;29;20473;-45
2022/04/23 03:37:56;;;;;;;23.47;20.60;;;;;;;6.46;98.67;101402.75;4955099;29;20448;-45
2022/04/23 03:40:25;;;;;;;23.57;20.97;;;;;;;6.43;98.99;101397.78;4955104;29;20431;-44
2022/04/23 03:42:52;;;;;;;21.93;19.67;;;;;;;6.44;98.98;101391.50;4954519;28;20468;-44
2022/04/23 03:45:20;;;;;;;22.33;20.13;;;;;;;6.40;98.73;101401.56;4951603;29;20441;-45
2022/04/23 03:47:48;;;;;;;30.00;19.73;;;;;;;6.39;98.95;101401.72;4936032;29;20436;-47
2022/04/23 03:50:17;;;;;;;21.63;19.33;;;;;;;6.40;98.92;101395.44;4935602;29;20475;-45
2022/04/23 03:52:45;;;;;;;22.47;19.87;;;;;;;6.39;99.62;101399.88;4935247;28;20467;-46
2022/04/23 03:55:17;;;;;;;21.30;19.00;;;;;;;6.38;99.38;101406.19;4934876;29;20969;-46
2022/04/23 03:57:46;;;;;;;25.43;21.27;;;;;;;6.41;99.33;101413.84;4935973;29;20451;-48
2022/04/23 04:00:15;;;;;;;26.23;19.30;;;;;;;6.41;99.66;101405.88;4935573;29;20442;-46
2022/04/23 04:02:43;;;;;;;22.90;20.10;;;;;;;6.42;98.95;101404.06;4935275;28;20473;-46
2022/04/23 04:05:12;;;;;;;24.40;21.37;;;;;;;6.43;99.09;101403.91;4935356;29;20436;-45
2022/04/23 04:07:44;;;;;;;21.67;19.40;;;;;;;6.47;98.93;101402.63;4935435;29;20448;-45
2022/04/23 04:10:14;;;;;;;23.97;20.00;;;;;;;6.46;98.97;101397.47;4935484;29;20436;-46
2022/04/23 04:12:42;;;;;;;21.83;19.30;;;;;;;6.49;99.51;101392.69;4935122;28;20476;-48
2022/04/23 04:15:12;;;;;;;32.63;21.33;;;;;;;6.51;98.60;101400.50;4935352;29;20476;-45
2022/04/23 04:17:41;;;;;;;22.30;20.00;;;;;;;6.54;99.09;101398.34;4935336;29;20472;-44
2022/04/23 04:20:10;;;;;;;24.87;20.63;;;;;;;6.54;98.88;101397.56;4935365;29;20441;-47
2022/04/23 04:22:38;;;;;;;24.80;21.43;;;;;;;6.60;98.96;101405.69;4934849;28;20468;-45
2022/04/23 04:25:07;;;;;;;23.30;21.00;;;;;;;6.61;98.89;101406.53;4935295;29;20432;-45
2022/04/23 04:27:36;;;;;;;23.03;20.60;;;;;;;6.69;98.75;101403.91;4934914;29;20471;-46
2022/04/23 04:30:06;;;;;;;22.87;20.43;;;;;;;6.74;99.14;101404.31;4935062;29;20439;-45
2022/04/23 04:32:34;;;;;;;22.77;20.37;;;;;;;6.90;99.26;101404.41;4934751;28;20557;-45
2022/04/23 04:35:02;;;;;;;23.80;19.43;;;;;;;7.04;98.51;101406.50;4935415;29;20483;-48
2022/04/23 04:37:29;;;;;;;23.27;20.23;;;;;;;7.15;98.67;101405.38;4935434;29;20800;-45
2022/04/23 04:39:57;;;;;;;19.73;17.97;;;;;;;7.27;97.79;101405.91;4935472;29;20432;-44
2022/04/23 04:42:25;;;;;;;24.10;18.67;;;;;;;7.37;97.72;101406.63;4934893;28;20815;-45
2022/04/23 04:44:57;;;;;;;21.07;18.90;;;;;;;7.62;97.15;101401.25;4935520;29;20433;-45
2022/04/23 04:47:24;;;;;;;22.33;19.93;;;;;;;7.76;95.92;101399.81;4935128;29;20821;-44
2022/04/23 04:49:52;;;;;;;21.40;19.13;;;;;;;8.01;95.50;101395.34;4935651;29;20440;-45
2022/04/23 04:52:19;;;;;;;21.30;19.20;;;;;;;8.24;94.15;101399.84;4934921;28;20464;-45
2022/04/23 04:54:47;;;;;;;21.17;18.77;;;;;;;8.71;92.80;101392.06;4935648;29;20990;-45
2022/04/23 04:57:15;;;;;;;19.03;17.07;;;;;;;9.17;88.77;101387.78;4935379;29;20467;-44
2022/04/23 04:59:42;;;;;;;19.33;17.47;;;;;;;9.71;86.14;101387.88;4935363;29;20436;-46
2022/04/23 05:02:11;;;;;;;18.30;16.63;;;;;;;9.98;82.24;101390.03;4934870;28;20480;-44
2022/04/23 05:04:39;;;;;;;18.70;16.73;;;;;;;10.32;78.53;101397.66;4935750;29;20469;-45
2022/04/23 05:07:07;;;;;;;18.97;17.07;;;;;;;10.59;75.99;101388.25;4938416;29;20552;-47
2022/04/23 05:09:35;;;;;;;18.13;16.20;;;;;;;10.87;74.47;101392.00;4939009;29;20432;-45
2022/04/23 05:12:03;;;;;;;17.97;16.37;;;;;;;11.06;73.98;101388.78;4938027;28;20472;-45
2022/04/23 05:14:31;;;;;;;18.27;16.53;;;;;;;11.48;73.16;101399.63;4938294;29;20443;-45
2022/04/23 05:16:58;;;;;;;17.70;16.20;;;;;;;11.81;71.25;101389.34;4938749;29;20834;-45
2022/04/23 05:19:27;;;;;;;17.57;15.70;;;;;;;11.86;69.77;101391.44;4938490;29;20821;-44
2022/04/23 05:21:55;;;;;;;16.57;15.10;;;;;;;12.13;68.29;101386.19;4937834;28;20468;-46
2022/04/23 05:24:24;;;;;;;20.20;17.33;;;;;;;12.46;67.17;101386.47;4938231;29;20981;-47
2022/04/23 05:26:53;;;;;;;16.97;14.73;;;;;;;12.45;66.38;101392.03;4938008;29;20532;-48
2022/04/23 05:29:21;;;;;;;17.20;15.53;;;;;;;12.99;66.87;101398.41;4938318;29;20518;-46
2022/04/23 05:31:48;;;;;;;17.47;15.77;;;;;;;13.00;64.68;101381.31;4937491;28;21021;-47
2022/04/23 05:34:16;;;;;;;17.40;15.70;;;;;;;13.43;63.96;101398.06;4938224;29;20443;-47
2022/04/23 05:36:45;;;;;;;16.27;14.87;;;;;;;13.35;64.10;101400.09;4937945;29;20985;-45
2022/04/23 05:39:13;;;;;;;17.27;15.40;;;;;;;13.14;61.82;101401.81;4937910;29;20447;-45
2022/04/23 05:41:46;;;;;;;15.93;14.30;;;;;;;13.32;63.00;101409.31;4937311;28;20986;-45
2022/04/23 05:44:14;;;;;;;16.23;14.70;;;;;;;12.82;62.40;101414.94;4937847;29;20437;-47
2022/04/23 05:46:41;;;;;;;17.43;15.77;;;;;;;13.44;63.79;101404.25;4937732;29;20463;-46
2022/04/23 05:49:09;;;;;;;15.87;14.40;;;;;;;13.71;64.20;101408.69;4937731;29;20900;-46
2022/04/23 05:51:36;;;;;;;15.80;14.30;;;;;;;14.10;60.96;101402.59;4936937;28;21017;-45
2022/04/23 05:54:05;;;;;;;16.97;15.47;;;;;;;14.30;59.12;101414.22;4937558;29;21088;-47
2022/04/23 05:56:33;;;;;;;16.50;15.30;;;;;;;14.56;57.41;101416.94;4937737;29;20484;-45
2022/04/23 05:59:01;;;;;;;16.80;15.30;;;;;;;14.22;58.66;101409.84;4937702;29;20436;-46
2022/04/23 06:01:28;;;;;;;18.17;16.77;;;;;;;14.03;59.61;101418.69;4936852;28;20464;-44
2022/04/23 06:03:56;;;;;;;17.07;15.37;;;;;;;14.29;60.14;101421.44;4937506;29;20436;-46
2022/04/23 06:06:23;;;;;;;15.60;14.27;;;;;;;13.58;60.98;101425.56;4937294;29;20456;-46
2022/04/23 06:08:51;;;;;;;16.27;14.77;;;;;;;13.49;61.29;101418.72;4945115;29;21723;-47
2022/04/23 06:11:20;;;;;;;17.30;15.60;;;;;;;13.37;63.79;101420.31;4954017;28;20475;-47
2022/04/23 06:13:48;;;;;;;16.70;14.87;;;;;;;12.81;62.91;101426.72;4950899;29;20436;-45
2022/04/23 06:16:15;;;;;;;16.20;14.93;;;;;;;12.94;64.53;101419.59;4954166;29;20483;-45
2022/04/23 06:18:43;;;;;;;16.20;14.57;;;;;;;12.59;64.83;101418.72;4938993;28;20806;-45
2022/04/23 06:21:10;;;;;;;17.10;14.97;;;;;;;12.52;65.66;101430.34;4952243;28;20443;-45
2022/04/23 06:23:38;;;;;;;15.70;14.43;;;;;;;13.07;64.67;101426.88;4947994;29;20437;-46
2022/04/23 06:26:07;;;;;;;16.37;14.80;;;;;;;13.27;65.81;101430.53;4946414;29;20460;-46
2022/04/23 06:28:36;;;;;;;16.40;14.93;;;;;;;13.46;62.91;101427.16;4940528;29;20436;-47
2022/04/23 06:31:04;;;;;;;15.40;14.17;;;;;;;13.05;63.79;101428.94;4945434;28;20431;-47
2022/04/23 06:33:31;;;;;;;16.50;14.80;;;;;;;13.00;64.62;101424.16;4936212;29;20441;-46
2022/04/23 06:36:00;;;;;;;16.77;15.37;;;;;;;12.76;64.36;101419.25;4943127;29;20484;-49
2022/04/23 06:38:27;;;;;;;17.67;15.80;;;;;;;12.93;65.33;101436.66;4937829;29;20949;-45
2022/04/23 06:40:55;;;;;;;19.37;15.90;;;;;;;12.72;65.83;101426.03;4940154;28;20830;-46
2022/04/23 06:43:23;;;;;;;17.50;15.77;;;;;;;12.97;67.11;101419.19;4945897;29;20437;-47
2022/04/23 06:45:52;;;;;;;17.50;15.90;;;;;;;12.94;64.05;101410.72;4939379;28;20445;-47
2022/04/23 06:48:20;;;;;;;17.43;15.93;;;;;;;13.57;63.17;101413.19;4935864;29;21022;-46
2022/04/23 06:50:48;;;;;;;14.93;13.77;;;;;;;13.73;60.70;101418.19;4942080;29;20943;-48
2022/04/23 06:53:16;;;;;;;18.27;16.60;;;;;;;14.22;59.75;101425.94;4935760;28;20846;-46
2022/04/23 06:55:44;;;;;;;15.93;14.60;;;;;;;14.58;59.27;101419.41;4933985;29;21006;-47
2022/04/23 06:58:11;;;;;;;18.33;15.80;;;;;;;14.54;59.30;101437.81;4948398;29;20460;-46
2022/04/23 07:00:40;;;;;;;16.10;14.80;;;;;;;13.67;60.70;101436.94;4935418;29;20444;-46
2022/04/23 07:03:09;;;;;;;17.17;15.67;;;;;;;14.34;61.33;101437.75;4929222;29;20465;-47
2022/04/23 07:05:37;;;;;;;18.23;16.43;;;;;;;14.57;59.46;101428.50;4935968;29;20459;-47
2022/04/23 07:08:05;;;;;;;18.07;16.40;;;;;;;14.80;59.64;101435.13;4934297;29;20441;-45
2022/04/23 07:10:34;;;;;;;17.80;16.07;;;;;;;15.02;57.58;101429.53;4932229;29;20449;-47
2022/04/23 07:13:03;;;;;;;16.47;14.90;;;;;;;15.29;56.12;101423.06;4948481;28;20474;-47
2022/04/23 07:15:31;;;;;;;17.77;16.23;;;;;;;15.17;56.17;101430.13;4955171;28;20794;-45
2022/04/23 07:17:59;;;;;;;17.07;15.67;;;;;;;15.14;56.32;101425.16;4954933;28;20442;-48
2022/04/23 07:20:28;;;;;;;17.67;16.37;;;;;;;14.91;57.63;101433.66;4954756;29;20431;-48
2022/04/23 07:25:41;;;;;;;16.90;15.50;;;;;;;15.00;57.79;101431.56;4954093;28;20992;-46
2022/04/23 07:28:08;;;;;;;16.77;15.50;;;;;;;14.58;59.97;101425.59;4953308;28;20440;-45
2022/04/23 07:30:36;;;;;;;15.93;14.60;;;;;;;14.65;59.06;101433.66;4954735;29;20526;-47
2022/04/23 07:33:05;;;;;;;16.63;15.33;;;;;;;14.32;58.65;101430.91;4953908;28;20459;-49
2022/04/23 07:38:21;;;;;;;22.30;15.93;;;;;;;14.00;61.48;101432.50;4955087;29;20450;-46
2022/04/23 07:40:49;;;;;;;17.57;15.80;;;;;;;13.79;62.73;101433.47;4954880;29;20436;-48
2022/04/23 07:43:18;;;;;;;17.80;16.23;;;;;;;13.91;63.02;101432.91;4954297;28;20551;-46
2022/04/23 07:45:47;;;;;;;18.07;16.47;;;;;;;13.25;64.81;101438.78;4954800;28;20456;-47
2022/04/23 07:48:15;;;;;;;16.40;14.77;;;;;;;13.12;64.76;101454.75;4946737;28;20816;-48
2022/04/23 07:50:44;;;;;;;16.53;15.13;;;;;;;12.75;65.93;101457.75;4954416;29;20436;-45
2022/04/23 07:53:12;;;;;;;18.20;16.63;;;;;;;12.25;70.42;101439.97;4935954;28;20850;-45
2022/04/23 07:55:40;;;;;;;17.43;15.83;;;;;;;12.35;70.08;101439.66;4935480;29;21033;-46
2022/04/23 07:58:09;;;;;;;17.73;16.10;;;;;;;12.48;69.14;101437.97;4935104;29;20440;-46
2022/04/23 08:00:38;;;;;;;17.10;15.60;;;;;;;12.53;69.80;101432.03;4934797;29;20947;-47
2022/04/23 08:03:06;;;;;;;16.93;15.60;;;;;;;12.50;70.70;101446.63;4934752;29;20495;-44
2022/04/23 08:05:35;;;;;;;16.97;15.47;;;;;;;12.84;68.20;101437.84;4935177;29;20432;-44
2022/04/23 08:08:04;;;;;;;17.00;15.37;;;;;;;13.02;66.60;101440.84;4935414;29;20440;-47
2022/04/23 08:10:32;;;;;;;17.70;16.07;;;;;;;13.03;66.51;101455.91;4934757;29;20441;-46
2022/04/23 08:13:00;;;;;;;17.17;15.40;;;;;;;13.13;67.75;101448.38;4927959;28;20843;-48
2022/04/23 08:15:28;;;;;;;16.80;15.17;;;;;;;13.39;66.29;101462.94;4930853;29;20528;-46
2022/04/23 08:17:55;;;;;;;19.43;16.17;;;;;;;13.91;65.04;101446.28;4935021;29;20818;-46
2022/04/23 08:20:23;;;;;;;14.80;13.30;;;;;;;13.42;65.79;101441.97;4934750;29;20436;-49
2022/04/23 08:22:51;;;;;;;16.13;14.70;;;;;;;13.43;63.80;101443.63;4950047;28;20830;-47
2022/04/23 08:25:20;;;;;;;16.53;14.90;;;;;;;12.97;64.99;101447.81;4954055;28;20431;-46
2022/04/23 08:27:49;;;;;;;15.27;13.87;;;;;;;13.12;64.51;101451.25;4951632;29;20444;-44
2022/04/23 08:30:34;;;;;;;15.30;14.00;;;;;;;12.81;66.45;101456.97;4952955;29;20808;-47
2022/04/23 08:33:02;;;;;;;17.13;14.63;;;;;;;12.66;67.20;101442.84;4936332;28;20552;-47
2022/04/23 08:35:30;;;;;;;14.93;13.83;;;;;;;12.42;68.50;101444.09;4931121;29;20810;-47
2022/04/23 08:37:57;;;;;;;16.90;15.20;;;;;;;12.38;67.98;101450.00;4935089;29;20842;-47
2022/04/23 08:40:27;;;;;;;16.93;15.47;;;;;;;12.44;67.80;101444.72;4934577;29;20441;-51
2022/04/23 08:42:55;;;;;;;16.30;14.90;;;;;;;12.48;67.39;101446.00;4934731;29;20464;-49
2022/04/23 08:45:23;;;;;;;16.30;14.97;;;;;;;12.48;67.63;101435.28;4935312;29;20474;-47
2022/04/23 08:47:51;;;;;;;17.23;15.70;;;;;;;12.49;67.95;101442.28;4934480;29;20447;-47
2022/04/23 08:50:22;;;;;;;16.93;15.30;;;;;;;12.64;68.20;101447.53;4915886;29;20457;-46
2022/04/23 08:52:54;;;;;;;16.70;15.40;;;;;;;12.69;68.36;101445.94;4915820;29;20469;-45
2022/04/23 08:55:22;;;;;;;16.40;14.97;;;;;;;12.48;67.43;101439.81;4916013;29;20449;-46
2022/04/23 08:57:51;;;;;;;17.53;16.30;;;;;;;12.56;67.73;101447.69;4916477;29;20474;-47
2022/04/23 09:00:18;;;;;;;17.97;16.17;;;;;;;12.67;66.83;101445.31;4916163;29;20943;-46
2022/04/23 09:02:47;;;;;;;17.50;16.00;;;;;;;12.95;66.98;101441.84;4915696;29;20473;-46
2022/04/23 09:05:15;;;;;;;18.80;17.00;;;;;;;12.68;68.48;101448.84;4916188;29;20812;-49
2022/04/23 09:07:53;;;;;;;17.87;16.37;;;;;;;12.77;66.78;101445.81;4918920;29;20441;-45
2022/04/23 09:10:22;;;;;;;18.27;16.77;;;;;;;12.85;66.49;101428.78;4928611;29;20424;-49
2022/04/23 09:12:58;;;;;;;16.80;15.50;;;;;;;12.98;66.28;101430.72;4950016;28;20470;-46
2022/04/23 09:24:07;;;;;;;17.23;15.47;;;;;;;13.17;65.23;101435.44;4935304;29;20432;-45
2022/04/23 09:26:34;;;;;;;18.20;16.30;;;;;;;13.11;66.22;101428.19;4934555;29;20480;-48
2022/04/23 09:29:13;;;;;;;17.70;16.07;;;;;;;13.09;66.25;101435.56;4935081;29;20788;-45
2022/04/23 09:31:41;;;;;;;19.07;17.37;;;;;;;12.98;64.85;101423.53;4993995;23;20449;-47
2022/04/23 09:34:15;;;;;;;16.70;15.10;;;;;;;13.10;65.01;101431.88;5003092;28;20429;-47
2022/04/23 09:36:50;;;;;;;16.90;15.50;;;;;;;13.17;64.80;101424.72;5011376;28;20447;-44
2022/04/23 09:39:31;;;;;;;18.00;16.50;;;;;;;13.07;65.13;101441.09;5011651;28;20436;-45
2022/04/23 09:42:11;;;;;;;16.83;15.20;;;;;;;13.12;67.42;101425.28;5010773;28;20461;-48
2022/04/23 09:44:41;;;;;;;17.10;15.60;;;;;;;12.93;66.32;101420.59;5011661;28;20428;-44
2022/04/23 09:47:08;;;;;;;17.00;15.40;;;;;;;13.06;65.03;101419.88;4994046;28;20426;-50
2022/04/23 09:49:38;;;;;;;16.80;15.40;;;;;;;13.03;65.22;101421.09;5006743;28;20516;-45
2022/04/23 09:52:08;;;;;;;17.03;15.57;;;;;;;13.22;65.01;101404.34;5001065;28;20537;-50
2022/04/23 09:54:38;;;;;;;18.23;16.53;;;;;;;13.08;66.61;101401.81;4995292;28;20438;-44
2022/04/23 09:57:06;;;;;;;17.47;16.13;;;;;;;13.25;65.36;101401.28;4995382;28;20473;-48
2022/04/23 09:59:34;;;;;;;19.33;17.07;;;;;;;13.27;63.99;101399.22;4995352;28;20440;-44
2022/04/23 10:02:06;;;;;;;21.50;18.10;;;;;;;13.30;64.72;101398.00;4994525;28;21079;-48
2022/04/23 10:04:34;;;;;;;18.70;16.87;;;;;;;13.36;63.92;101407.09;4995478;28;20426;-47
2022/04/23 10:07:05;;;;;;;18.40;16.80;;;;;;;13.36;64.13;101399.88;4995461;28;20811;-47
2022/04/23 10:09:39;;;;;;;16.60;15.10;;;;;;;13.52;63.78;101407.59;4995427;28;20437;-43
2022/04/23 10:12:12;;;;;;;17.53;16.07;;;;;;;13.64;62.49;101403.31;4994344;28;20548;-45
2022/04/23 10:14:43;;;;;;;18.50;16.77;;;;;;;13.78;61.64;101391.59;4995272;28;20434;-51
2022/04/23 10:17:17;;;;;;;17.80;15.90;;;;;;;13.82;60.99;101389.34;4995257;28;20850;-48
2022/04/23 10:19:45;;;;;;;18.80;17.20;;;;;;;13.89;61.30;101405.47;4995213;28;20434;-45
2022/04/23 10:22:19;;;;;;;17.87;16.37;;;;;;;13.79;61.45;101406.69;4994396;28;20466;-44
2022/04/23 10:24:56;;;;;;;18.20;16.60;;;;;;;13.76;62.38;101391.00;4994885;28;20994;-47
2022/04/23 10:27:25;;;;;;;17.90;16.23;;;;;;;13.85;62.31;101395.16;4995104;28;20434;-49
2022/04/23 10:29:55;;;;;;;17.27;15.30;;;;;;;14.16;61.26;101389.22;4995075;28;20467;-48
2022/04/23 10:32:24;;;;;;;15.93;14.53;;;;;;;14.11;60.10;101388.16;4994066;28;20470;-44
2022/04/23 10:34:53;;;;;;;17.53;15.83;;;;;;;13.80;60.45;101383.34;4994778;28;20433;-48
2022/04/23 10:37:22;;;;;;;17.83;16.23;;;;;;;13.95;61.28;101375.97;4994573;28;20962;-46
2022/04/23 10:40:16;;;;;;;15.90;14.63;;;;;;;14.05;60.01;101379.09;4994839;28;20804;-46
2022/04/23 10:43:07;;;;;;;16.70;15.30;;;;;;;14.19;59.24;101383.44;4994092;28;20869;-46
2022/04/23 10:45:35;;;;;;;16.00;14.40;;;;;;;14.19;58.78;101370.03;4994388;28;20444;-46
2022/04/23 10:48:27;;;;;;;16.73;15.27;;;;;;;14.25;58.70;101363.84;4994895;28;20836;-44
2022/04/23 10:51:16;;;;;;;16.10;14.60;;;;;;;14.07;59.00;101370.81;4993852;28;20824;-44
2022/04/23 10:53:56;;;;;;;17.03;15.33;;;;;;;14.34;59.14;101351.91;4994445;28;20533;-50
2022/04/23 10:56:26;;;;;;;16.57;15.17;;;;;;;14.30;60.02;101368.59;4994804;28;20445;-47
2022/04/23 10:58:54;;;;;;;17.00;15.23;;;;;;;14.32;59.97;101362.03;4994359;28;20567;-44
2022/04/23 11:01:24;;;;;;;16.33;14.73;;;;;;;14.36;58.81;101368.66;4993634;28;20816;-47
2022/04/23 11:04:10;;;;;;;17.13;15.63;;;;;;;14.44;58.54;101361.41;4993998;28;20422;-46
2022/04/23 11:12:39;;;;;;;18.63;16.60;;;;;;;14.52;58.76;101353.13;4993351;28;21054;-43
2022/04/23 11:15:16;;;;;;;16.07;14.63;;;;;;;14.46;58.74;101365.53;4994310;28;20457;-46
2022/04/23 11:17:55;;;;;;;17.30;15.80;;;;;;;14.68;58.47;101355.41;4993995;28;20517;-45
2022/04/23 11:20:37;;;;;;;18.67;16.97;;;;;;;14.77;57.96;101349.63;4993767;28;20804;-50
2022/04/23 11:23:06;;;;;;;16.73;15.33;;;;;;;14.91;57.27;101343.16;4993356;28;20489;-49
2022/04/23 11:25:34;;;;;;;16.70;15.27;;;;;;;14.91;57.10;101353.09;4994099;28;20440;-44
2022/04/23 11:28:18;;;;;;;17.40;15.70;;;;;;;14.72;58.05;101340.53;4994083;28;20437;-47
2022/04/23 11:30:46;;;;;;;16.23;14.73;;;;;;;14.75;57.66;101353.53;4993470;28;20470;-45
2022/04/23 11:33:14;;;;;;;18.13;16.53;;;;;;;14.78;57.87;101337.03;4968631;28;20475;-48
2022/04/23 11:35:43;;;;;;;16.43;15.07;;;;;;;14.91;56.43;101335.13;4954761;29;20430;-48
2022/04/23 11:38:21;;;;;;;18.07;16.20;;;;;;;14.99;56.97;101339.44;4955015;29;20479;-44
2022/04/23 11:40:48;;;;;;;17.93;16.43;;;;;;;15.01;56.57;101333.84;4954570;29;20546;-47
2022/04/23 11:43:32;;;;;;;18.43;16.93;;;;;;;15.19;56.78;101334.00;4953354;28;20833;-46
2022/04/23 11:46:06;;;;;;;17.60;15.90;;;;;;;15.12;56.20;101343.94;4958318;28;20435;-45